Time;durP1;ratioP1;P1;durP2;ratioP2;P2;SDS_P1;SDS_P2;PMS_P1;PMS_P2;Temp;Humidity;BMP_temperature;BMP_pressure;BME280_temperature;BME280_humidity;BME280_pressure;Samples;Min_cycle;Max_cycle;Signal;HPM_P1;HPM_P2
2023/06/04 00:01:37;;;;;;;;;;;;;;;;;;5011887;28;19921;-59
2023/06/04 00:04:03;;;;;;;;;;;;;;;;;;5031528;28;19979;-59
2023/06/04 00:06:28;;;;;;;;;;;;;;;;;;5030937;28;19925;-59
2023/06/04 00:08:54;;;;;;;;;;;;;;;;;;5031515;28;20366;-60
2023/06/04 00:11:20;;;;;;;;;;;;;;;;;;5030930;28;19925;-60
2023/06/04 00:13:46;;;;;;;;;;;;;;;;;;5013561;28;19932;-60
2023/06/04 00:16:12;;;;;;;;;;;;;;;;;;5025562;28;19967;-60
2023/06/04 00:18:38;;;;;;;;;;;;;;;;;;5011930;28;20274;-61
2023/06/04 00:21:04;;;;;;;;;;;;;;;;;;5021293;28;19928;-59
2023/06/04 00:23:30;;;;;;;;;;;;;;;;;;5032276;28;19929;-59
2023/06/04 00:25:56;;;;;;;;;;;;;;;;;;5034937;28;20345;-60
2023/06/04 00:28:22;;;;;;;;;;;;;;;;;;5035228;28;19921;-60
2023/06/04 00:30:47;;;;;;;;;;;;;;;;;;5033394;28;19921;-60
2023/06/04 00:33:13;;;;;;;;;;;;;;;;;;5035490;28;20008;-59
2023/06/04 00:35:39;;;;;;;;;;;;;;;;;;5031334;28;19936;-60
2023/06/04 00:38:05;;;;;;;;;;;;;;;;;;5022970;28;20374;-59
2023/06/04 00:40:31;;;;;;;;;;;;;;;;;;5034667;28;19975;-59
2023/06/04 00:42:57;;;;;;;;;;;;;;;;;;5033629;28;19951;-59
2023/06/04 00:45:25;;;;;;;;;;;;;;;;;;5028932;28;19928;-59
2023/06/04 00:47:51;;;;;;;;;;;;;;;;;;5015648;28;20008;-60
2023/06/04 00:50:17;;;;;;;;;;;;;;;;;;5015406;28;20008;-61
2023/06/04 00:52:43;;;;;;;;;;;;;;;;;;5016390;28;19921;-61
2023/06/04 00:55:09;;;;;;;;;;;;;;;;;;5005493;28;19936;-61
2023/06/04 00:57:35;;;;;;;;;;;;;;;;;;5028626;28;19922;-60
2023/06/04 01:00:01;;;;;;;;;;;;;;;;;;5032841;28;19928;-60
2023/06/04 01:02:27;;;;;;;;;;;;;;;;;;5032109;28;19929;-60
2023/06/04 01:04:53;;;;;;;;;;;;;;;;;;5025767;28;19929;-60
2023/06/04 01:07:19;;;;;;;;;;;;;;;;;;5033423;28;19929;-61
2023/06/04 01:09:45;;;;;;;;;;;;;;;;;;5034737;28;20363;-59
2023/06/04 01:12:11;;;;;;;;;;;;;;;;;;5034375;28;19932;-61
2023/06/04 01:14:37;;;;;;;;;;;;;;;;;;5033224;28;20099;-58
2023/06/04 01:17:02;;;;;;;;;;;;;;;;;;5034181;28;19921;-59
2023/06/04 01:19:29;;;;;;;;;;;;;;;;;;5015498;28;19965;-60
2023/06/04 01:21:55;;;;;;;;;;;;;;;;;;5030994;28;20020;-60
2023/06/04 01:24:22;;;;;;;;;;;;;;;;;;5034283;28;20012;-60
2023/06/04 01:26:48;;;;;;;;;;;;;;;;;;5030012;28;19984;-60
2023/06/04 01:29:13;;;;;;;;;;;;;;;;;;5032624;28;20346;-60
2023/06/04 01:31:40;;;;;;;;;;;;;;;;;;5029193;28;20008;-60
2023/06/04 01:34:06;;;;;;;;;;;;;;;;;;5030030;28;19921;-64
2023/06/04 01:36:32;;;;;;;;;;;;;;;;;;5029647;28;19983;-65
2023/06/04 01:39:00;;;;;;;;;;;;;;;;;;5014371;28;19965;-64
2023/06/04 01:41:26;;;;;;;;;;;;;;;;;;5018768;28;19975;-63
2023/06/04 01:43:52;;;;;;;;;;;;;;;;;;5015786;28;19929;-63
2023/06/04 01:46:18;;;;;;;;;;;;;;;;;;5031465;28;19928;-64
2023/06/04 01:48:44;;;;;;;;;;;;;;;;;;5015522;28;19968;-63
2023/06/04 01:51:10;;;;;;;;;;;;;;;;;;5033413;28;19921;-64
2023/06/04 01:53:36;;;;;;;;;;;;;;;;;;5032352;28;19952;-63
2023/06/04 01:56:02;;;;;;;;;;;;;;;;;;5030920;28;19975;-63
2023/06/04 01:58:28;;;;;;;;;;;;;;;;;;5029295;28;19968;-64
2023/06/04 02:00:55;;;;;;;;;;;;;;;;;;5029522;28;19925;-64
2023/06/04 02:03:21;;;;;;;;;;;;;;;;;;5015128;28;19933;-64
2023/06/04 02:05:48;;;;;;;;;;;;;;;;;;5031294;28;19921;-64
2023/06/04 02:08:18;;;;;;;;;;;;;;;;;;5028801;28;19969;-64
2023/06/04 02:10:44;;;;;;;;;;;;;;;;;;5030353;28;19921;-63
2023/06/04 02:13:10;;;;;;;;;;;;;;;;;;5031158;28;19932;-64
2023/06/04 02:15:36;;;;;;;;;;;;;;;;;;5031774;28;19966;-64
2023/06/04 02:18:02;;;;;;;;;;;;;;;;;;5028971;28;19921;-64
2023/06/04 02:20:28;;;;;;;;;;;;;;;;;;5030866;28;20015;-63
2023/06/04 02:22:54;;;;;;;;;;;;;;;;;;5033210;28;20070;-63
2023/06/04 02:25:20;;;;;;;;;;;;;;;;;;5031847;28;19925;-63
2023/06/04 02:27:46;;;;;;;;;;;;;;;;;;5033341;28;20401;-63
2023/06/04 02:30:12;;;;;;;;;;;;;;;;;;5031044;28;19925;-64
2023/06/04 02:32:39;;;;;;;;;;;;;;;;;;5029786;28;20508;-63
2023/06/04 02:35:04;;;;;;;;;;;;;;;;;;5023362;28;19932;-64
2023/06/04 02:37:30;;;;;;;;;;;;;;;;;;5030542;28;19925;-64
2023/06/04 02:39:56;;;;;;;;;;;;;;;;;;5017648;28;20901;-64
2023/06/04 02:42:22;;;;;;;;;;;;;;;;;;5026380;28;19921;-64
2023/06/04 02:44:48;;;;;;;;;;;;;;;;;;5012248;28;20009;-64
2023/06/04 02:47:14;;;;;;;;;;;;;;;;;;5032079;28;19932;-64
2023/06/04 02:49:40;;;;;;;;;;;;;;;;;;5033043;28;19925;-64
2023/06/04 02:52:06;;;;;;;;;;;;;;;;;;5032705;28;20007;-64
2023/06/04 02:54:32;;;;;;;;;;;;;;;;;;5011236;28;19960;-64
2023/06/04 02:56:58;;;;;;;;;;;;;;;;;;5015236;28;19932;-65
2023/06/04 02:59:25;;;;;;;;;;;;;;;;;;5002453;28;20595;-64
2023/06/04 03:01:51;;;;;;;;;;;;;;;;;;5030308;28;19921;-64
2023/06/04 03:04:17;;;;;;;;;;;;;;;;;;5032607;28;20019;-64
2023/06/04 03:06:47;;;;;;;;;;;;;;;;;;5032420;28;19921;-64
2023/06/04 03:09:13;;;;;;;;;;;;;;;;;;5031330;28;19975;-64
2023/06/04 03:11:39;;;;;;;;;;;;;;;;;;4996882;28;19929;-64
2023/06/04 03:14:05;;;;;;;;;;;;;;;;;;5032504;28;20026;-64
2023/06/04 03:16:31;;;;;;;;;;;;;;;;;;5032532;28;20403;-64
2023/06/04 03:18:56;;;;;;;;;;;;;;;;;;5032171;28;19964;-64
2023/06/04 03:21:24;;;;;;;;;;;;;;;;;;5032029;28;19971;-64
2023/06/04 03:23:50;;;;;;;;;;;;;;;;;;5030474;28;19929;-64
2023/06/04 03:26:16;;;;;;;;;;;;;;;;;;5030687;28;19921;-63
2023/06/04 03:28:42;;;;;;;;;;;;;;;;;;5031813;28;19921;-63
2023/06/04 03:31:08;;;;;;;;;;;;;;;;;;5031988;28;20693;-64
2023/06/04 03:33:34;;;;;;;;;;;;;;;;;;5028249;28;19925;-64
2023/06/04 03:36:00;;;;;;;;;;;;;;;;;;5029851;28;20290;-65
2023/06/04 03:38:26;;;;;;;;;;;;;;;;;;5028489;28;19925;-64
2023/06/04 03:40:52;;;;;;;;;;;;;;;;;;5030452;28;19953;-64
2023/06/04 03:43:18;;;;;;;;;;;;;;;;;;5031230;28;19931;-64
2023/06/04 03:45:44;;;;;;;;;;;;;;;;;;5029585;28;20078;-64
2023/06/04 03:48:10;;;;;;;;;;;;;;;;;;5022970;28;19929;-64
2023/06/04 03:50:36;;;;;;;;;;;;;;;;;;5012396;28;19921;-64
2023/06/04 03:53:04;;;;;;;;;;;;;;;;;;5029724;28;19947;-63
2023/06/04 03:55:31;;;;;;;;;;;;;;;;;;5030392;28;19921;-63
2023/06/04 03:57:57;;;;;;;;;;;;;;;;;;5031758;28;19932;-64
2023/06/04 04:00:23;;;;;;;;;;;;;;;;;;5031505;28;19925;-64
2023/06/04 04:02:49;;;;;;;;;;;;;;;;;;5031224;28;19925;-64
2023/06/04 04:05:15;;;;;;;;;;;;;;;;;;5031310;28;20644;-65
2023/06/04 04:07:41;;;;;;;;;;;;;;;;;;5030268;28;20012;-63
2023/06/04 04:10:07;;;;;;;;;;;;;;;;;;5031580;28;20339;-63
2023/06/04 04:12:33;;;;;;;;;;;;;;;;;;5031624;28;19928;-64
2023/06/04 04:14:59;;;;;;;;;;;;;;;;;;5031827;28;19933;-64
2023/06/04 04:17:25;;;;;;;;;;;;;;;;;;5013794;28;19948;-64
2023/06/04 04:19:51;;;;;;;;;;;;;;;;;;5029954;28;20458;-63
2023/06/04 04:22:17;;;;;;;;;;;;;;;;;;5031626;28;19932;-64
2023/06/04 04:24:43;;;;;;;;;;;;;;;;;;5031511;28;19925;-64
2023/06/04 04:27:10;;;;;;;;;;;;;;;;;;5031220;28;20358;-64
2023/06/04 04:29:36;;;;;;;;;;;;;;;;;;5031693;28;19932;-64
2023/06/04 04:32:11;;;;;;;;;;;;;;;;;;5031732;28;19922;-63
2023/06/04 04:34:37;;;;;;;;;;;;;;;;;;5028508;28;19929;-63
2023/06/04 04:37:03;;;;;;;;;;;;;;;;;;5030128;28;19929;-63
2023/06/04 04:39:29;;;;;;;;;;;;;;;;;;5031540;28;19975;-63
2023/06/04 04:41:55;;;;;;;;;;;;;;;;;;5013456;28;19925;-63
2023/06/04 04:44:21;;;;;;;;;;;;;;;;;;5031453;28;20011;-63
2023/06/04 04:46:47;;;;;;;;;;;;;;;;;;5029740;28;20401;-63
2023/06/04 04:49:12;;;;;;;;;;;;;;;;;;5010749;28;19925;-63
2023/06/04 04:51:38;;;;;;;;;;;;;;;;;;5028624;28;19925;-64
2023/06/04 04:54:04;;;;;;;;;;;;;;;;;;5030036;28;19944;-63
2023/06/04 04:56:30;;;;;;;;;;;;;;;;;;5027936;28;19921;-63
2023/06/04 04:58:56;;;;;;;;;;;;;;;;;;5016039;28;19987;-64
2023/06/04 05:01:23;;;;;;;;;;;;;;;;;;5029704;28;19925;-64
2023/06/04 05:03:49;;;;;;;;;;;;;;;;;;5028567;28;19944;-64
2023/06/04 05:06:15;;;;;;;;;;;;;;;;;;5003096;28;20271;-64
2023/06/04 05:08:42;;;;;;;;;;;;;;;;;;5006498;28;19984;-64
2023/06/04 05:11:08;;;;;;;;;;;;;;;;;;4996186;28;20796;-64
2023/06/04 05:13:33;;;;;;;;;;;;;;;;;;5011740;28;20020;-64
2023/06/04 05:16:06;;;;;;;;;;;;;;;;;;5011136;28;19925;-64
2023/06/04 05:18:31;;;;;;;;;;;;;;;;;;5011892;28;19921;-64
2023/06/04 05:20:59;;;;;;;;;;;;;;;;;;5015039;28;20268;-64
2023/06/04 05:23:25;;;;;;;;;;;;;;;;;;5014828;28;19925;-64
2023/06/04 05:25:51;;;;;;;;;;;;;;;;;;5014661;28;20260;-65
2023/06/04 05:28:18;;;;;;;;;;;;;;;;;;5014820;28;20004;-64
2023/06/04 05:30:44;;;;;;;;;;;;;;;;;;5014000;28;19928;-64
2023/06/04 05:33:17;;;;;;;;;;;;;;;;;;5011836;28;20465;-63
2023/06/04 05:35:43;;;;;;;;;;;;;;;;;;5013233;28;19921;-63
2023/06/04 05:38:09;;;;;;;;;;;;;;;;;;5014390;28;19952;-64
2023/06/04 05:40:35;;;;;;;;;;;;;;;;;;5012479;28;19921;-64
2023/06/04 05:43:00;;;;;;;;;;;;;;;;;;5014591;28;20014;-63
2023/06/04 05:45:26;;;;;;;;;;;;;;;;;;5014418;28;19921;-63
2023/06/04 05:47:52;;;;;;;;;;;;;;;;;;5013265;28;19925;-64
2023/06/04 05:50:18;;;;;;;;;;;;;;;;;;5014044;28;20275;-65
2023/06/04 05:52:44;;;;;;;;;;;;;;;;;;5011646;28;19921;-65
2023/06/04 05:55:10;;;;;;;;;;;;;;;;;;5012388;28;19928;-64
2023/06/04 05:57:36;;;;;;;;;;;;;;;;;;5011909;28;19925;-65
2023/06/04 06:00:02;;;;;;;;;;;;;;;;;;5012224;28;20252;-64
2023/06/04 06:02:28;;;;;;;;;;;;;;;;;;5010448;28;19925;-65
2023/06/04 06:04:54;;;;;;;;;;;;;;;;;;5013577;28;19921;-64
2023/06/04 06:07:20;;;;;;;;;;;;;;;;;;5033015;28;20021;-65
2023/06/04 06:09:46;;;;;;;;;;;;;;;;;;5022320;28;20004;-65
2023/06/04 06:12:12;;;;;;;;;;;;;;;;;;5025955;28;19968;-65
2023/06/04 06:14:38;;;;;;;;;;;;;;;;;;5030911;28;20502;-65
2023/06/04 06:17:04;;;;;;;;;;;;;;;;;;5031169;28;19936;-65
2023/06/04 06:19:30;;;;;;;;;;;;;;;;;;5015567;28;19928;-64
2023/06/04 06:21:58;;;;;;;;;;;;;;;;;;5026318;28;19926;-65
2023/06/04 06:24:24;;;;;;;;;;;;;;;;;;5033136;28;19924;-65
2023/06/04 06:26:50;;;;;;;;;;;;;;;;;;5023815;28;20280;-65
2023/06/04 06:29:16;;;;;;;;;;;;;;;;;;5012714;28;20383;-64
2023/06/04 06:31:42;;;;;;;;;;;;;;;;;;5033127;28;19960;-64
2023/06/04 06:34:08;;;;;;;;;;;;;;;;;;5027812;28;20000;-64
2023/06/04 06:36:34;;;;;;;;;;;;;;;;;;5013306;28;20019;-65
2023/06/04 06:38:59;;;;;;;;;;;;;;;;;;5022383;28;19928;-65
2023/06/04 06:41:26;;;;;;;;;;;;;;;;;;5029780;28;19925;-64
2023/06/04 06:43:51;;;;;;;;;;;;;;;;;;5010309;28;19923;-65
2023/06/04 06:46:17;;;;;;;;;;;;;;;;;;5030762;28;19925;-64
2023/06/04 06:48:45;;;;;;;;;;;;;;;;;;5032914;28;20315;-65
2023/06/04 06:51:11;;;;;;;;;;;;;;;;;;5014826;28;19937;-64
2023/06/04 06:53:36;;;;;;;;;;;;;;;;;;5033067;28;19928;-65
2023/06/04 06:56:02;;;;;;;;;;;;;;;;;;5032345;28;19925;-65
2023/06/04 06:58:28;;;;;;;;;;;;;;;;;;5025035;28;20010;-64
2023/06/04 07:00:56;;;;;;;;;;;;;;;;;;5023811;28;19929;-65
2023/06/04 07:03:22;;;;;;;;;;;;;;;;;;5013267;28;19928;-65
2023/06/04 07:05:48;;;;;;;;;;;;;;;;;;5027769;28;20315;-64
2023/06/04 07:08:14;;;;;;;;;;;;;;;;;;5032759;28;19960;-65
2023/06/04 07:10:40;;;;;;;;;;;;;;;;;;5031303;28;19972;-65
2023/06/04 07:13:06;;;;;;;;;;;;;;;;;;5009280;28;19921;-65
2023/06/04 07:15:32;;;;;;;;;;;;;;;;;;5024952;28;20305;-65
2023/06/04 07:17:58;;;;;;;;;;;;;;;;;;5011933;28;19971;-65
2023/06/04 07:20:24;;;;;;;;;;;;;;;;;;5021572;28;20024;-65
2023/06/04 07:22:49;;;;;;;;;;;;;;;;;;5013252;28;20021;-64
2023/06/04 07:25:15;;;;;;;;;;;;;;;;;;5031192;28;19925;-65
2023/06/04 07:27:41;;;;;;;;;;;;;;;;;;5029182;28;19960;-65
2023/06/04 07:30:07;;;;;;;;;;;;;;;;;;5028372;28;19921;-64
2023/06/04 07:32:33;;;;;;;;;;;;;;;;;;5026714;28;19925;-64
2023/06/04 07:34:59;;;;;;;;;;;;;;;;;;5027510;28;19929;-63
2023/06/04 07:37:25;;;;;;;;;;;;;;;;;;5027083;28;19925;-64
2023/06/04 07:39:51;;;;;;;;;;;;;;;;;;5031336;28;20281;-65
2023/06/04 07:42:17;;;;;;;;;;;;;;;;;;5029094;28;19928;-66
2023/06/04 07:44:43;;;;;;;;;;;;;;;;;;5030897;28;19921;-65
2023/06/04 07:47:09;;;;;;;;;;;;;;;;;;5030261;28;19979;-65
2023/06/04 07:49:35;;;;;;;;;;;;;;;;;;5032022;28;19925;-65
2023/06/04 07:52:01;;;;;;;;;;;;;;;;;;5029468;28;19925;-64
2023/06/04 07:54:27;;;;;;;;;;;;;;;;;;5028740;28;19921;-65
2023/06/04 07:56:55;;;;;;;;;;;;;;;;;;5022591;28;19921;-65
2023/06/04 07:59:21;;;;;;;;;;;;;;;;;;5030096;28;19964;-65
2023/06/04 08:01:47;;;;;;;;;;;;;;;;;;5024510;28;19979;-65
2023/06/04 08:04:13;;;;;;;;;;;;;;;;;;5029621;28;19988;-65
2023/06/04 08:06:39;;;;;;;;;;;;;;;;;;5030574;28;20363;-65
2023/06/04 08:09:06;;;;;;;;;;;;;;;;;;5027142;28;19921;-65
2023/06/04 08:11:32;;;;;;;;;;;;;;;;;;5018860;28;19928;-65
2023/06/04 08:13:58;;;;;;;;;;;;;;;;;;5010730;28;19921;-65
2023/06/04 08:16:24;;;;;;;;;;;;;;;;;;5028430;28;19925;-64
2023/06/04 08:18:50;;;;;;;;;;;;;;;;;;5030308;28;19925;-65
2023/06/04 08:21:17;;;;;;;;;;;;;;;;;;5010774;28;19929;-65
2023/06/04 08:23:43;;;;;;;;;;;;;;;;;;5012507;28;20291;-64
2023/06/04 08:26:09;;;;;;;;;;;;;;;;;;5026225;28;19925;-64
2023/06/04 08:28:35;;;;;;;;;;;;;;;;;;5029639;28;19929;-65
2023/06/04 08:31:01;;;;;;;;;;;;;;;;;;5030496;28;20287;-65
2023/06/04 08:33:27;;;;;;;;;;;;;;;;;;5031074;28;20410;-65
2023/06/04 08:35:52;;;;;;;;;;;;;;;;;;5009761;28;19936;-65
2023/06/04 08:38:18;;;;;;;;;;;;;;;;;;5031464;28;19925;-65
2023/06/04 08:40:44;;;;;;;;;;;;;;;;;;5029731;28;19983;-64
2023/06/04 08:43:10;;;;;;;;;;;;;;;;;;5021137;28;19925;-65
2023/06/04 08:45:36;;;;;;;;;;;;;;;;;;5024663;28;19936;-64
2023/06/04 08:48:02;;;;;;;;;;;;;;;;;;5032969;28;19951;-64
2023/06/04 08:50:28;;;;;;;;;;;;;;;;;;5034280;28;20012;-64
2023/06/04 08:52:57;;;;;;;;;;;;;;;;;;5034518;28;19925;-64
2023/06/04 08:55:22;;;;;;;;;;;;;;;;;;5028302;28;20004;-64
2023/06/04 08:57:48;;;;;;;;;;;;;;;;;;5033466;28;19933;-64
2023/06/04 09:00:15;;;;;;;;;;;;;;;;;;5034320;28;19968;-63
2023/06/04 09:02:41;;;;;;;;;;;;;;;;;;5013769;28;19991;-64
2023/06/04 09:05:08;;;;;;;;;;;;;;;;;;5032759;28;20510;-63
2023/06/04 09:07:34;;;;;;;;;;;;;;;;;;5028826;28;19936;-64
2023/06/04 09:10:00;;;;;;;;;;;;;;;;;;5031912;28;19921;-63
2023/06/04 09:12:26;;;;;;;;;;;;;;;;;;5033828;28;19920;-64
2023/06/04 09:14:52;;;;;;;;;;;;;;;;;;5031596;28;19925;-64
2023/06/04 09:17:18;;;;;;;;;;;;;;;;;;5031927;28;19925;-64
2023/06/04 09:19:44;;;;;;;;;;;;;;;;;;5030666;28;19927;-64
2023/06/04 09:22:10;;;;;;;;;;;;;;;;;;5034539;28;19971;-64
2023/06/04 09:24:36;;;;;;;;;;;;;;;;;;5031728;28;20366;-64
2023/06/04 09:27:02;;;;;;;;;;;;;;;;;;5032414;28;19929;-64
2023/06/04 09:29:28;;;;;;;;;;;;;;;;;;5032831;28;19921;-64
2023/06/04 09:31:54;;;;;;;;;;;;;;;;;;5028782;28;19925;-64
2023/06/04 09:34:20;;;;;;;;;;;;;;;;;;5007742;28;20433;-63
2023/06/04 09:36:46;;;;;;;;;;;;;;;;;;5032201;28;19921;-63
2023/06/04 09:39:12;;;;;;;;;;;;;;;;;;5032630;28;20063;-63
2023/06/04 09:41:38;;;;;;;;;;;;;;;;;;5032118;28;19952;-64
2023/06/04 09:44:05;;;;;;;;;;;;;;;;;;5029121;28;20355;-64
2023/06/04 09:46:31;;;;;;;;;;;;;;;;;;5020528;28;20291;-64
2023/06/04 09:48:57;;;;;;;;;;;;;;;;;;5021701;28;19925;-65
2023/06/04 09:51:23;;;;;;;;;;;;;;;;;;5026218;28;19924;-65
2023/06/04 09:53:49;;;;;;;;;;;;;;;;;;5020626;28;19925;-65
2023/06/04 09:56:15;;;;;;;;;;;;;;;;;;5028881;28;19928;-64
2023/06/04 09:58:41;;;;;;;;;;;;;;;;;;5034103;28;19999;-64
2023/06/04 10:01:07;;;;;;;;;;;;;;;;;;5029328;28;20016;-65
2023/06/04 10:03:33;;;;;;;;;;;;;;;;;;5033876;28;20465;-65
2023/06/04 10:06:00;;;;;;;;;;;;;;;;;;5035296;28;19955;-65
2023/06/04 10:08:25;;;;;;;;;;;;;;;;;;5029853;28;19928;-63
2023/06/04 10:10:54;;;;;;;;;;;;;;;;;;5005588;28;20270;-65
2023/06/04 10:13:20;;;;;;;;;;;;;;;;;;5033423;28;19929;-64
2023/06/04 10:15:46;;;;;;;;;;;;;;;;;;5033604;28;19921;-65
2023/06/04 10:18:12;;;;;;;;;;;;;;;;;;5031605;28;19929;-64
2023/06/04 10:20:38;;;;;;;;;;;;;;;;;;5031314;28;19921;-65
2023/06/04 10:23:04;;;;;;;;;;;;;;;;;;5031944;28;19929;-64
2023/06/04 10:25:30;;;;;;;;;;;;;;;;;;5031291;28;19925;-64
2023/06/04 10:27:56;;;;;;;;;;;;;;;;;;5031333;28;19921;-64
2023/06/04 10:30:22;;;;;;;;;;;;;;;;;;5032592;28;19929;-66
2023/06/04 10:32:47;;;;;;;;;;;;;;;;;;5032565;28;20400;-64
2023/06/04 10:35:15;;;;;;;;;;;;;;;;;;5031086;28;19976;-65
2023/06/04 10:37:41;;;;;;;;;;;;;;;;;;5021665;28;19925;-64
2023/06/04 10:40:07;;;;;;;;;;;;;;;;;;4998070;28;19921;-64
2023/06/04 10:42:34;;;;;;;;;;;;;;;;;;5031861;28;20300;-64
2023/06/04 10:45:00;;;;;;;;;;;;;;;;;;5033100;28;19948;-64
2023/06/04 10:47:26;;;;;;;;;;;;;;;;;;5033275;28;19921;-64
2023/06/04 10:49:52;;;;;;;;;;;;;;;;;;5024935;28;19929;-65
2023/06/04 10:52:18;;;;;;;;;;;;;;;;;;5033085;28;19991;-65
2023/06/04 10:54:44;;;;;;;;;;;;;;;;;;5014924;28;20375;-64
2023/06/04 10:57:09;;;;;;;;;;;;;;;;;;5029513;28;20012;-64
2023/06/04 10:59:35;;;;;;;;;;;;;;;;;;5032081;28;19997;-65
2023/06/04 11:02:01;;;;;;;;;;;;;;;;;;5030227;28;19972;-65
2023/06/04 11:04:27;;;;;;;;;;;;;;;;;;5029868;28;19921;-65
2023/06/04 11:06:55;;;;;;;;;;;;;;;;;;5029969;28;21299;-65
2023/06/04 11:09:21;;;;;;;;;;;;;;;;;;5029464;28;20007;-65
2023/06/04 11:11:47;;;;;;;;;;;;;;;;;;5030936;28;19927;-65
2023/06/04 11:14:13;;;;;;;;;;;;;;;;;;5032258;28;19921;-65
2023/06/04 11:16:39;;;;;;;;;;;;;;;;;;5030968;28;20259;-64
2023/06/04 11:19:04;;;;;;;;;;;;;;;;;;5030520;28;19921;-63
2023/06/04 11:21:30;;;;;;;;;;;;;;;;;;5060325;22;19932;-63
2023/06/04 11:23:56;;;;;;;;;;;;;;;;;;5070056;28;19931;-64
2023/06/04 11:26:25;;;;;;;;;;;;;;;;;;5071017;28;19974;-64
2023/06/04 11:28:51;;;;;;;;;;;;;;;;;;5070781;28;19920;-64
2023/06/04 11:31:17;;;;;;;;;;;;;;;;;;5053867;28;19920;-65
2023/06/04 11:33:43;;;;;;;;;;;;;;;;;;5070663;28;19971;-64
2023/06/04 11:36:09;;;;;;;;;;;;;;;;;;5071840;28;19986;-64
2023/06/04 11:38:35;;;;;;;;;;;;;;;;;;5065614;28;19927;-64
2023/06/04 11:41:01;;;;;;;;;;;;;;;;;;5038533;28;20007;-65
2023/06/04 11:43:27;;;;;;;;;;;;;;;;;;5053675;28;19929;-63
2023/06/04 11:45:53;;;;;;;;;;;;;;;;;;5071846;28;19986;-63
2023/06/04 11:48:19;;;;;;;;;;;;;;;;;;5052332;28;19976;-64
2023/06/04 11:50:44;;;;;;;;;;;;;;;;;;5053897;28;19920;-64
2023/06/04 11:53:10;;;;;;;;;;;;;;;;;;5053923;28;20134;-64
2023/06/04 11:55:36;;;;;;;;;;;;;;;;;;5068369;28;19970;-64
2023/06/04 11:58:02;;;;;;;;;;;;;;;;;;5068210;28;20003;-64
2023/06/04 12:00:30;;;;;;;;;;;;;;;;;;5069253;28;19920;-64
2023/06/04 12:02:55;;;;;;;;;;;;;;;;;;5047702;28;20463;-64
2023/06/04 12:05:22;;;;;;;;;;;;;;;;;;5047014;28;19999;-63
2023/06/04 12:07:50;;;;;;;;;;;;;;;;;;5070351;28;19921;-64
2023/06/04 12:10:16;;;;;;;;;;;;;;;;;;5070725;28;19972;-65
2023/06/04 12:12:42;;;;;;;;;;;;;;;;;;5069879;28;19975;-63
2023/06/04 12:15:09;;;;;;;;;;;;;;;;;;5065969;28;19968;-63
2023/06/04 12:17:35;;;;;;;;;;;;;;;;;;5067868;28;20463;-64
2023/06/04 12:20:01;;;;;;;;;;;;;;;;;;5064697;28;19977;-63
2023/06/04 12:22:27;;;;;;;;;;;;;;;;;;5069376;28;19928;-65
2023/06/04 12:24:53;;;;;;;;;;;;;;;;;;5073862;28;19932;-63
2023/06/04 12:27:21;;;;;;;;;;;;;;;;;;5074569;28;19957;-64
2023/06/04 12:29:47;;;;;;;;;;;;;;;;;;5082997;28;19924;-64
2023/06/04 12:32:13;;;;;;;;;;;;;;;;;;5055972;28;19936;-64
2023/06/04 12:34:38;;;;;;;;;;;;;;;;;;5063166;28;19982;-65
2023/06/04 12:37:05;;;;;;;;;;;;;;;;;;5053693;28;19925;-64
2023/06/04 12:39:31;;;;;;;;;;;;;;;;;;5071014;28;19989;-64
2023/06/04 12:41:57;;;;;;;;;;;;;;;;;;5071300;28;20346;-64
2023/06/04 12:44:23;;;;;;;;;;;;;;;;;;5057062;28;19975;-64
2023/06/04 12:46:49;;;;;;;;;;;;;;;;;;5071917;28;19973;-64
2023/06/04 12:49:15;;;;;;;;;;;;;;;;;;5054132;28;19920;-64
2023/06/04 12:51:41;;;;;;;;;;;;;;;;;;5072032;28;19921;-64
2023/06/04 12:54:07;;;;;;;;;;;;;;;;;;5073416;28;19931;-64
2023/06/04 12:56:33;;;;;;;;;;;;;;;;;;5073694;28;19921;-64
2023/06/04 12:58:59;;;;;;;;;;;;;;;;;;5070587;28;19936;-63
2023/06/04 13:01:25;;;;;;;;;;;;;;;;;;5069197;28;20001;-65
2023/06/04 13:03:51;;;;;;;;;;;;;;;;;;5071497;28;19990;-64
2023/06/04 13:06:16;;;;;;;;;;;;;;;;;;5039844;28;19928;-60
2023/06/04 13:08:43;;;;;;;;;;;;;;;;;;5073694;28;19947;-60
2023/06/04 13:11:09;;;;;;;;;;;;;;;;;;5073271;28;19924;-60
2023/06/04 13:13:35;;;;;;;;;;;;;;;;;;5072691;28;19932;-60
2023/06/04 13:16:01;;;;;;;;;;;;;;;;;;5052135;28;19931;-61
2023/06/04 13:18:27;;;;;;;;;;;;;;;;;;5071852;28;19921;-59
2023/06/04 13:20:53;;;;;;;;;;;;;;;;;;5069430;28;20278;-58
2023/06/04 13:23:19;;;;;;;;;;;;;;;;;;5070770;28;20556;-59
2023/06/04 13:25:45;;;;;;;;;;;;;;;;;;5067874;28;19921;-59
2023/06/04 13:28:11;;;;;;;;;;;;;;;;;;5072780;28;19929;-60
2023/06/04 13:30:37;;;;;;;;;;;;;;;;;;5073359;28;19924;-60
2023/06/04 13:33:02;;;;;;;;;;;;;;;;;;5053058;28;19928;-60
2023/06/04 13:35:29;;;;;;;;;;;;;;;;;;5070297;28;20011;-60
2023/06/04 13:37:55;;;;;;;;;;;;;;;;;;5072916;28;20401;-60
2023/06/04 13:40:20;;;;;;;;;;;;;;;;;;5057498;28;20016;-60
2023/06/04 13:42:46;;;;;;;;;;;;;;;;;;5066798;28;19928;-60
2023/06/04 13:45:13;;;;;;;;;;;;;;;;;;5051262;28;19928;-60
2023/06/04 13:47:38;;;;;;;;;;;;;;;;;;5071009;28;20067;-60
2023/06/04 13:50:05;;;;;;;;;;;;;;;;;;5072031;28;20451;-59
2023/06/04 13:52:31;;;;;;;;;;;;;;;;;;5066558;28;20415;-60
2023/06/04 13:54:58;;;;;;;;;;;;;;;;;;5075246;28;19928;-60
2023/06/04 13:57:24;;;;;;;;;;;;;;;;;;5086418;28;19921;-60
2023/06/04 13:59:50;;;;;;;;;;;;;;;;;;5066664;28;20262;-60
2023/06/04 14:02:16;;;;;;;;;;;;;;;;;;5054507;28;19920;-60
2023/06/04 14:04:42;;;;;;;;;;;;;;;;;;5053282;28;19924;-60
2023/06/04 14:07:08;;;;;;;;;;;;;;;;;;5055076;28;20267;-60
2023/06/04 14:09:34;;;;;;;;;;;;;;;;;;5069133;28;19925;-62
2023/06/04 14:11:59;;;;;;;;;;;;;;;;;;5062834;28;19920;-59
2023/06/04 14:14:26;;;;;;;;;;;;;;;;;;5070498;28;19974;-60
2023/06/04 14:16:54;;;;;;;;;;;;;;;;;;5071199;28;19924;-60
2023/06/04 14:19:20;;;;;;;;;;;;;;;;;;5071503;28;20778;-60
2023/06/04 14:21:46;;;;;;;;;;;;;;;;;;5049984;28;19976;-59
2023/06/04 14:24:12;;;;;;;;;;;;;;;;;;5052134;28;19920;-60
2023/06/04 14:26:38;;;;;;;;;;;;;;;;;;5043577;28;19921;-60
2023/06/04 14:29:04;;;;;;;;;;;;;;;;;;5030155;28;19921;-60
2023/06/04 14:31:30;;;;;;;;;;;;;;;;;;5052174;28;20258;-60
2023/06/04 14:33:56;;;;;;;;;;;;;;;;;;5048902;28;19920;-59
2023/06/04 14:36:21;;;;;;;;;;;;;;;;;;5049856;28;19963;-59
2023/06/04 14:38:48;;;;;;;;;;;;;;;;;;5048110;28;19973;-60
2023/06/04 14:41:14;;;;;;;;;;;;;;;;;;5046581;28;20255;-64
2023/06/04 14:43:40;;;;;;;;;;;;;;;;;;5047005;28;19921;-60
2023/06/04 14:46:06;;;;;;;;;;;;;;;;;;5044640;28;19921;-60
2023/06/04 14:48:31;;;;;;;;;;;;;;;;;;5047033;28;19940;-60
2023/06/04 14:50:57;;;;;;;;;;;;;;;;;;5045488;28;19924;-60
2023/06/04 14:53:23;;;;;;;;;;;;;;;;;;5049239;28;19929;-60
2023/06/04 14:55:49;;;;;;;;;;;;;;;;;;5048524;28;19956;-60
2023/06/04 14:58:15;;;;;;;;;;;;;;;;;;5048235;28;19946;-59
2023/06/04 15:00:41;;;;;;;;;;;;;;;;;;5048101;28;19925;-59
2023/06/04 15:03:07;;;;;;;;;;;;;;;;;;5049464;28;19928;-60
2023/06/04 15:05:33;;;;;;;;;;;;;;;;;;5046189;28;19927;-60
2023/06/04 15:07:59;;;;;;;;;;;;;;;;;;5048123;28;19932;-60
2023/06/04 15:10:24;;;;;;;;;;;;;;;;;;5049789;28;19921;-60
2023/06/04 15:12:50;;;;;;;;;;;;;;;;;;5050765;28;19932;-60
2023/06/04 15:15:16;;;;;;;;;;;;;;;;;;5052146;28;19967;-60
2023/06/04 15:17:42;;;;;;;;;;;;;;;;;;5050350;28;19932;-60
2023/06/04 15:20:08;;;;;;;;;;;;;;;;;;5051562;28;19924;-60
2023/06/04 15:22:34;;;;;;;;;;;;;;;;;;5070132;28;19924;-60
2023/06/04 15:25:00;;;;;;;;;;;;;;;;;;5070531;28;20010;-60
2023/06/04 15:27:26;;;;;;;;;;;;;;;;;;5055336;28;20401;-59
2023/06/04 15:29:52;;;;;;;;;;;;;;;;;;5067856;28;19927;-60
2023/06/04 15:32:18;;;;;;;;;;;;;;;;;;5070841;28;20320;-59
2023/06/04 15:34:43;;;;;;;;;;;;;;;;;;5069645;28;20009;-60
2023/06/04 15:37:10;;;;;;;;;;;;;;;;;;5037436;28;19924;-59
2023/06/04 15:39:35;;;;;;;;;;;;;;;;;;5062718;28;19931;-60
2023/06/04 15:42:01;;;;;;;;;;;;;;;;;;5078248;28;19925;-60
2023/06/04 15:44:27;;;;;;;;;;;;;;;;;;5067917;28;20455;-59
2023/06/04 15:46:53;;;;;;;;;;;;;;;;;;5066526;28;19924;-59
2023/06/04 15:49:19;;;;;;;;;;;;;;;;;;5067708;28;19924;-59
2023/06/04 15:51:45;;;;;;;;;;;;;;;;;;5069362;28;19921;-59
2023/06/04 15:54:11;;;;;;;;;;;;;;;;;;5054605;28;19947;-60
2023/06/04 15:56:37;;;;;;;;;;;;;;;;;;5062187;28;19924;-61
2023/06/04 15:59:03;;;;;;;;;;;;;;;;;;5067991;28;19921;-61
2023/06/04 16:01:28;;;;;;;;;;;;;;;;;;5065875;28;19939;-60
2023/06/04 16:03:55;;;;;;;;;;;;;;;;;;5066754;28;19920;-59
2023/06/04 16:06:21;;;;;;;;;;;;;;;;;;5068146;28;19932;-60
2023/06/04 16:08:47;;;;;;;;;;;;;;;;;;5031992;28;19978;-60
2023/06/04 16:11:12;;;;;;;;;;;;;;;;;;5067814;28;19975;-59
2023/06/04 16:13:38;;;;;;;;;;;;;;;;;;5059156;28;19967;-58
2023/06/04 16:16:04;;;;;;;;;;;;;;;;;;5068310;28;19925;-59
2023/06/04 16:18:30;;;;;;;;;;;;;;;;;;5066232;28;19970;-60
2023/06/04 16:20:56;;;;;;;;;;;;;;;;;;5066664;28;19929;-60
2023/06/04 16:23:22;;;;;;;;;;;;;;;;;;5026307;28;20502;-60
2023/06/04 16:25:48;;;;;;;;;;;;;;;;;;5070705;28;20259;-60
2023/06/04 16:28:14;;;;;;;;;;;;;;;;;;5071036;28;19920;-59
2023/06/04 16:30:40;;;;;;;;;;;;;;;;;;5069597;28;19928;-60
2023/06/04 16:33:06;;;;;;;;;;;;;;;;;;5070595;28;19935;-60
2023/06/04 16:35:32;;;;;;;;;;;;;;;;;;5063713;28;19928;-59
2023/06/04 16:37:58;;;;;;;;;;;;;;;;;;5064703;28;19920;-59